sensor_id;sensor_type;location;lat;lon;timestamp;pressure;altitude;pressure_sealevel;temperature;humidity
76434;BME280;65265;53.200;6.080;2024-02-15T00:00:08;101406.72;;;9.99;100.00
76434;BME280;65265;53.200;6.080;2024-02-15T00:05:01;101412.03;;;10.02;100.00
76434;BME280;65265;53.200;6.080;2024-02-15T00:09:54;101400.94;;;10.02;100.00
76434;BME280;65265;53.200;6.080;2024-02-15T00:14:50;101400.44;;;10.09;100.00
76434;BME280;65265;53.200;6.080;2024-02-15T00:19:42;101400.44;;;10.09;100.00
76434;BME280;65265;53.200;6.080;2024-02-15T00:24:36;101399.56;;;10.08;100.00
76434;BME280;65265;53.200;6.080;2024-02-15T00:29:29;101407.53;;;10.14;100.00
76434;BME280;65265;53.200;6.080;2024-02-15T00:34:25;101402.59;;;10.17;100.00
76434;BME280;65265;53.200;6.080;2024-02-15T00:39:18;101416.09;;;10.15;100.00
76434;BME280;65265;53.200;6.080;2024-02-15T00:44:10;101409.94;;;10.11;100.00
76434;BME280;65265;53.200;6.080;2024-02-15T00:49:03;101407.22;;;10.08;100.00
76434;BME280;65265;53.200;6.080;2024-02-15T00:53:58;101408.31;;;10.13;100.00
76434;BME280;65265;53.200;6.080;2024-02-15T00:58:51;101402.94;;;10.07;100.00
76434;BME280;65265;53.200;6.080;2024-02-15T01:03:44;101417.47;;;10.08;100.00
76434;BME280;65265;53.200;6.080;2024-02-15T01:08:36;101394.91;;;10.01;100.00
76434;BME280;65265;53.200;6.080;2024-02-15T01:13:33;101399.34;;;10.04;100.00
76434;BME280;65265;53.200;6.080;2024-02-15T01:18:27;101374.50;;;9.85;100.00
76434;BME280;65265;53.200;6.080;2024-02-15T01:23:20;101405.31;;;10.04;100.00
76434;BME280;65265;53.200;6.080;2024-02-15T01:28:13;101404.59;;;10.07;100.00
76434;BME280;65265;53.200;6.080;2024-02-15T01:33:07;101397.72;;;10.06;100.00
76434;BME280;65265;53.200;6.080;2024-02-15T01:38:00;101398.97;;;9.98;100.00
76434;BME280;65265;53.200;6.080;2024-02-15T01:42:52;101415.47;;;10.03;100.00
76434;BME280;65265;53.200;6.080;2024-02-15T01:47:45;101407.81;;;10.03;100.00
76434;BME280;65265;53.200;6.080;2024-02-15T01:52:41;101397.06;;;9.94;100.00
76434;BME280;65265;53.200;6.080;2024-02-15T01:57:38;101416.16;;;10.00;100.00
76434;BME280;65265;53.200;6.080;2024-02-15T02:02:34;101411.69;;;9.96;100.00
76434;BME280;65265;53.200;6.080;2024-02-15T02:07:27;101421.44;;;10.03;100.00
76434;BME280;65265;53.200;6.080;2024-02-15T02:12:22;101416.94;;;9.99;100.00
76434;BME280;65265;53.200;6.080;2024-02-15T02:17:15;101411.31;;;10.05;100.00
76434;BME280;65265;53.200;6.080;2024-02-15T02:22:11;101413.59;;;10.00;100.00
76434;BME280;65265;53.200;6.080;2024-02-15T02:27:07;101407.94;;;10.06;100.00
76434;BME280;65265;53.200;6.080;2024-02-15T02:32:00;101412.34;;;10.08;100.00
76434;BME280;65265;53.200;6.080;2024-02-15T02:36:53;101415.84;;;10.10;100.00
76434;BME280;65265;53.200;6.080;2024-02-15T02:41:46;101408.09;;;10.09;100.00
76434;BME280;65265;53.200;6.080;2024-02-15T02:46:41;101412.50;;;10.11;100.00
76434;BME280;65265;53.200;6.080;2024-02-15T02:51:34;101401.22;;;10.08;100.00
76434;BME280;65265;53.200;6.080;2024-02-15T02:56:26;101412.81;;;10.17;100.00
76434;BME280;65265;53.200;6.080;2024-02-15T03:01:19;101401.59;;;10.15;100.00
76434;BME280;65265;53.200;6.080;2024-02-15T03:06:13;101400.84;;;10.16;100.00
76434;BME280;65265;53.200;6.080;2024-02-15T03:11:05;101401.78;;;10.18;100.00
76434;BME280;65265;53.200;6.080;2024-02-15T03:15:58;101395.72;;;10.16;100.00
76434;BME280;65265;53.200;6.080;2024-02-15T03:20:50;101399.22;;;10.18;100.00
76434;BME280;65265;53.200;6.080;2024-02-15T03:25:44;101393.22;;;10.18;100.00
76434;BME280;65265;53.200;6.080;2024-02-15T03:30:37;101382.78;;;10.13;100.00
76434;BME280;65265;53.200;6.080;2024-02-15T03:35:29;101396.69;;;10.18;100.00
76434;BME280;65265;53.200;6.080;2024-02-15T03:40:22;101390.19;;;10.25;100.00
76434;BME280;65265;53.200;6.080;2024-02-15T03:45:19;101383.31;;;10.24;100.00
76434;BME280;65265;53.200;6.080;2024-02-15T03:50:15;101385.88;;;10.24;100.00
76434;BME280;65265;53.200;6.080;2024-02-15T03:55:09;101382.38;;;10.22;100.00
76434;BME280;65265;53.200;6.080;2024-02-15T04:00:04;101377.31;;;10.23;100.00
76434;BME280;65265;53.200;6.080;2024-02-15T04:05:01;101388.72;;;10.30;100.00
76434;BME280;65265;53.200;6.080;2024-02-15T04:09:55;101387.91;;;10.31;100.00
76434;BME280;65265;53.200;6.080;2024-02-15T04:14:49;101377.78;;;10.32;100.00
76434;BME280;65265;53.200;6.080;2024-02-15T04:19:43;101375.34;;;10.35;100.00
76434;BME280;65265;53.200;6.080;2024-02-15T04:24:40;101370.91;;;10.31;100.00
76434;BME280;65265;53.200;6.080;2024-02-15T04:29:33;101378.00;;;10.37;100.00
76434;BME280;65265;53.200;6.080;2024-02-15T04:34:25;101382.44;;;10.41;100.00
76434;BME280;65265;53.200;6.080;2024-02-15T04:39:18;101381.88;;;10.46;100.00
76434;BME280;65265;53.200;6.080;2024-02-15T04:44:18;101373.47;;;10.49;100.00
76434;BME280;65265;53.200;6.080;2024-02-15T04:49:11;101364.19;;;10.51;100.00
76434;BME280;65265;53.200;6.080;2024-02-15T04:54:03;101341.53;;;10.58;100.00
76434;BME280;65265;53.200;6.080;2024-02-15T04:58:58;101332.69;;;10.69;100.00
76434;BME280;65265;53.200;6.080;2024-02-15T05:03:52;101317.28;;;10.68;100.00
76434;BME280;65265;53.200;6.080;2024-02-15T05:08:46;101299.16;;;10.63;100.00
76434;BME280;65265;53.200;6.080;2024-02-15T05:13:38;101309.53;;;10.66;100.00
76434;BME280;65265;53.200;6.080;2024-02-15T05:18:30;101304.16;;;10.79;100.00
76434;BME280;65265;53.200;6.080;2024-02-15T05:23:28;101298.84;;;10.75;100.00
76434;BME280;65265;53.200;6.080;2024-02-15T05:28:21;101303.81;;;10.72;100.00
76434;BME280;65265;53.200;6.080;2024-02-15T05:33:17;101307.53;;;10.78;100.00
76434;BME280;65265;53.200;6.080;2024-02-15T05:38:09;101309.63;;;10.87;100.00
76434;BME280;65265;53.200;6.080;2024-02-15T05:43:08;101306.06;;;10.83;100.00
76434;BME280;65265;53.200;6.080;2024-02-15T05:48:00;101310.59;;;10.89;100.00
76434;BME280;65265;53.200;6.080;2024-02-15T05:52:54;101308.63;;;10.83;100.00
76434;BME280;65265;53.200;6.080;2024-02-15T05:57:46;101307.28;;;10.91;100.00
76434;BME280;65265;53.200;6.080;2024-02-15T06:02:44;101301.22;;;10.89;100.00
76434;BME280;65265;53.200;6.080;2024-02-15T06:07:37;101298.16;;;10.96;100.00
76434;BME280;65265;53.200;6.080;2024-02-15T06:12:30;101314.44;;;10.98;100.00
76434;BME280;65265;53.200;6.080;2024-02-15T06:17:22;101267.88;;;10.69;100.00
76434;BME280;65265;53.200;6.080;2024-02-15T06:22:17;101309.31;;;10.98;100.00
76434;BME280;65265;53.200;6.080;2024-02-15T06:27:10;101304.06;;;10.95;100.00
76434;BME280;65265;53.200;6.080;2024-02-15T06:32:04;101307.03;;;10.85;100.00
76434;BME280;65265;53.200;6.080;2024-02-15T06:37:35;101299.81;;;10.96;100.00
76434;BME280;65265;53.200;6.080;2024-02-15T06:42:45;101292.25;;;10.99;100.00
76434;BME280;65265;53.200;6.080;2024-02-15T06:47:37;101302.44;;;10.97;100.00
76434;BME280;65265;53.200;6.080;2024-02-15T06:52:33;101295.50;;;10.95;100.00
76434;BME280;65265;53.200;6.080;2024-02-15T06:57:25;101295.41;;;10.93;100.00
76434;BME280;65265;53.200;6.080;2024-02-15T07:02:19;101298.88;;;10.94;100.00
76434;BME280;65265;53.200;6.080;2024-02-15T07:07:13;101296.22;;;10.92;100.00
76434;BME280;65265;53.200;6.080;2024-02-15T07:12:09;101291.78;;;10.88;100.00
76434;BME280;65265;53.200;6.080;2024-02-15T07:17:02;101309.91;;;10.93;100.00
76434;BME280;65265;53.200;6.080;2024-02-15T07:21:55;101303.09;;;10.93;100.00
76434;BME280;65265;53.200;6.080;2024-02-15T07:26:48;101299.94;;;10.99;100.00
76434;BME280;65265;53.200;6.080;2024-02-15T07:31:45;101292.09;;;10.94;100.00
76434;BME280;65265;53.200;6.080;2024-02-15T07:36:37;101288.84;;;10.98;100.00
76434;BME280;65265;53.200;6.080;2024-02-15T07:41:32;101295.84;;;11.02;100.00
76434;BME280;65265;53.200;6.080;2024-02-15T07:46:25;101299.22;;;11.01;100.00
76434;BME280;65265;53.200;6.080;2024-02-15T07:51:22;101295.63;;;10.98;100.00
76434;BME280;65265;53.200;6.080;2024-02-15T07:56:15;101307.03;;;11.04;100.00
76434;BME280;65265;53.200;6.080;2024-02-15T08:01:08;101312.09;;;11.03;100.00
76434;BME280;65265;53.200;6.080;2024-02-15T08:06:01;101308.59;;;11.01;100.00
76434;BME280;65265;53.200;6.080;2024-02-15T08:10:58;101304.41;;;11.03;100.00
76434;BME280;65265;53.200;6.080;2024-02-15T08:15:53;101307.22;;;11.09;100.00
76434;BME280;65265;53.200;6.080;2024-02-15T08:20:46;101313.25;;;11.09;100.00
76434;BME280;65265;53.200;6.080;2024-02-15T08:25:38;101309.75;;;11.07;100.00
76434;BME280;65265;53.200;6.080;2024-02-15T08:30:34;101312.31;;;11.07;100.00
76434;BME280;65265;53.200;6.080;2024-02-15T08:35:28;101309.75;;;11.07;100.00
76434;BME280;65265;53.200;6.080;2024-02-15T08:40:22;101299.63;;;11.10;100.00
76434;BME280;65265;53.200;6.080;2024-02-15T08:45:16;101303.25;;;11.15;100.00
76434;BME280;65265;53.200;6.080;2024-02-15T08:50:11;101298.50;;;11.23;100.00
76434;BME280;65265;53.200;6.080;2024-02-15T08:55:04;101300.09;;;11.21;100.00
76434;BME280;65265;53.200;6.080;2024-02-15T08:59:57;101293.31;;;11.21;100.00
76434;BME280;65265;53.200;6.080;2024-02-15T09:04:49;101290.06;;;11.25;100.00
76434;BME280;65265;53.200;6.080;2024-02-15T09:09:44;101288.72;;;11.33;100.00
76434;BME280;65265;53.200;6.080;2024-02-15T09:14:38;101276.97;;;11.38;100.00
76434;BME280;65265;53.200;6.080;2024-02-15T09:19:31;101277.25;;;11.44;100.00
76434;BME280;65265;53.200;6.080;2024-02-15T09:24:23;101265.38;;;11.46;100.00
76434;BME280;65265;53.200;6.080;2024-02-15T09:29:18;101270.78;;;11.52;100.00
76434;BME280;65265;53.200;6.080;2024-02-15T09:34:11;101266.66;;;11.56;100.00
76434;BME280;65265;53.200;6.080;2024-02-15T09:39:04;101260.66;;;11.55;100.00
76434;BME280;65265;53.200;6.080;2024-02-15T09:43:57;101246.09;;;11.54;100.00
76434;BME280;65265;53.200;6.080;2024-02-15T09:48:51;101266.13;;;11.63;100.00
76434;BME280;65265;53.200;6.080;2024-02-15T09:53:49;101267.69;;;11.59;100.00
76434;BME280;65265;53.200;6.080;2024-02-15T09:58:41;101278.19;;;11.65;100.00
76434;BME280;65265;53.200;6.080;2024-02-15T10:03:33;101274.19;;;11.53;100.00
76434;BME280;65265;53.200;6.080;2024-02-15T10:08:29;101263.44;;;11.60;100.00
76434;BME280;65265;53.200;6.080;2024-02-15T10:13:23;101257.69;;;11.65;100.00
76434;BME280;65265;53.200;6.080;2024-02-15T10:18:16;101266.44;;;11.70;100.00
76434;BME280;65265;53.200;6.080;2024-02-15T10:23:14;101268.13;;;11.70;100.00
76434;BME280;65265;53.200;6.080;2024-02-15T10:28:11;101273.50;;;11.76;100.00
76434;BME280;65265;53.200;6.080;2024-02-15T10:33:07;101279.41;;;11.73;100.00
76434;BME280;65265;53.200;6.080;2024-02-15T10:38:06;101273.31;;;11.71;100.00
76434;BME280;65265;53.200;6.080;2024-02-15T10:43:03;101279.53;;;11.76;100.00
76434;BME280;65265;53.200;6.080;2024-02-15T10:48:09;101280.34;;;11.75;100.00
76434;BME280;65265;53.200;6.080;2024-02-15T10:53:09;101275.94;;;11.73;100.00
76434;BME280;65265;53.200;6.080;2024-02-15T10:58:06;101272.69;;;11.77;100.00
76434;BME280;65265;53.200;6.080;2024-02-15T11:03:03;101269.47;;;11.81;100.00
76434;BME280;65265;53.200;6.080;2024-02-15T11:07:58;101270.47;;;11.84;100.00
76434;BME280;65265;53.200;6.080;2024-02-15T11:12:51;101269.78;;;11.88;100.00
76434;BME280;65265;53.200;6.080;2024-02-15T11:17:49;101262.72;;;11.83;100.00
76434;BME280;65265;53.200;6.080;2024-02-15T11:22:56;101269.69;;;11.87;100.00
76434;BME280;65265;53.200;6.080;2024-02-15T11:27:49;101267.22;;;11.88;100.00
76434;BME280;65265;53.200;6.080;2024-02-15T11:32:42;101260.53;;;11.92;100.00
76434;BME280;65265;53.200;6.080;2024-02-15T11:37:55;101261.53;;;11.95;100.00
76434;BME280;65265;53.200;6.080;2024-02-15T11:42:54;101260.72;;;11.96;100.00
76434;BME280;65265;53.200;6.080;2024-02-15T11:47:48;101260.13;;;12.03;100.00
76434;BME280;65265;53.200;6.080;2024-02-15T11:52:42;101260.72;;;11.96;100.00
76434;BME280;65265;53.200;6.080;2024-02-15T11:57:36;101259.72;;;11.93;100.00
76434;BME280;65265;53.200;6.080;2024-02-15T12:02:38;101250.47;;;11.96;100.00
76434;BME280;65265;53.200;6.080;2024-02-15T12:08:03;101247.09;;;11.97;100.00
76434;BME280;65265;53.200;6.080;2024-02-15T12:13:19;101240.22;;;11.96;100.00
76434;BME280;65265;53.200;6.080;2024-02-15T12:18:28;101233.97;;;11.90;100.00
76434;BME280;65265;53.200;6.080;2024-02-15T12:23:33;101238.28;;;11.91;100.00
76434;BME280;65265;53.200;6.080;2024-02-15T12:28:28;101232.63;;;11.99;100.00
76434;BME280;65265;53.200;6.080;2024-02-15T12:33:21;101226.31;;;11.91;100.00
76434;BME280;65265;53.200;6.080;2024-02-15T12:38:13;101224.69;;;11.93;100.00
76434;BME280;65265;53.200;6.080;2024-02-15T12:43:07;101218.06;;;11.98;100.00
76434;BME280;65265;53.200;6.080;2024-02-15T12:48:02;101216.44;;;12.00;100.00
76434;BME280;65265;53.200;6.080;2024-02-15T12:52:56;101210.59;;;12.04;100.00
76434;BME280;65265;53.200;6.080;2024-02-15T12:57:53;101197.03;;;12.06;100.00
76434;BME280;65265;53.200;6.080;2024-02-15T13:02:48;101205.66;;;12.08;100.00
76434;BME280;65265;53.200;6.080;2024-02-15T13:07:44;101198.78;;;12.07;100.00
76434;BME280;65265;53.200;6.080;2024-02-15T13:12:37;101193.47;;;12.03;100.00
76434;BME280;65265;53.200;6.080;2024-02-15T13:17:29;101188.31;;;12.01;100.00
76434;BME280;65265;53.200;6.080;2024-02-15T13:22:22;101180.03;;;12.08;100.00
76434;BME280;65265;53.200;6.080;2024-02-15T13:27:17;101154.38;;;12.08;100.00
76434;BME280;65265;53.200;6.080;2024-02-15T13:32:10;101164.00;;;12.14;100.00
76434;BME280;65265;53.200;6.080;2024-02-15T13:37:02;101169.28;;;12.17;100.00
76434;BME280;65265;53.200;6.080;2024-02-15T13:41:55;101169.28;;;12.17;100.00
76434;BME280;65265;53.200;6.080;2024-02-15T13:46:50;101155.63;;;12.18;100.00
76434;BME280;65265;53.200;6.080;2024-02-15T13:51:46;101166.00;;;12.21;100.00
76434;BME280;65265;53.200;6.080;2024-02-15T13:56:39;101160.22;;;12.26;100.00
76434;BME280;65265;53.200;6.080;2024-02-15T14:01:31;101146.66;;;12.29;100.00
76434;BME280;65265;53.200;6.080;2024-02-15T14:06:27;101155.97;;;12.27;100.00
76434;BME280;65265;53.200;6.080;2024-02-15T14:11:20;101148.25;;;12.27;100.00
76434;BME280;65265;53.200;6.080;2024-02-15T14:16:13;101143.13;;;12.27;100.00
76434;BME280;65265;53.200;6.080;2024-02-15T14:21:07;101138.97;;;12.29;100.00
76434;BME280;65265;53.200;6.080;2024-02-15T14:26:04;101133.94;;;12.32;100.00
76434;BME280;65265;53.200;6.080;2024-02-15T14:30:57;101123.69;;;12.32;100.00
76434;BME280;65265;53.200;6.080;2024-02-15T14:36:06;101128.97;;;12.36;100.00
76434;BME280;65265;53.200;6.080;2024-02-15T14:40:58;101131.81;;;12.44;100.00
76434;BME280;65265;53.200;6.080;2024-02-15T14:45:56;101122.59;;;12.49;100.00
76434;BME280;65265;53.200;6.080;2024-02-15T14:50:48;101127.22;;;12.59;100.00
76434;BME280;65265;53.200;6.080;2024-02-15T14:55:41;101111.91;;;12.60;100.00
76434;BME280;65265;53.200;6.080;2024-02-15T15:00:36;101119.00;;;12.67;100.00
76434;BME280;65265;53.200;6.080;2024-02-15T15:05:35;101114.97;;;12.74;100.00
76434;BME280;65265;53.200;6.080;2024-02-15T15:10:45;101117.41;;;12.71;100.00
76434;BME280;65265;53.200;6.080;2024-02-15T15:15:55;101120.69;;;12.67;100.00
76434;BME280;65265;53.200;6.080;2024-02-15T15:20:50;101111.75;;;12.79;100.00
76434;BME280;65265;53.200;6.080;2024-02-15T15:25:42;101112.34;;;12.72;100.00
76434;BME280;65265;53.200;6.080;2024-02-15T15:30:36;101116.72;;;12.75;100.00
76434;BME280;65265;53.200;6.080;2024-02-15T15:35:30;101113.31;;;12.76;100.00
76434;BME280;65265;53.200;6.080;2024-02-15T15:40:24;101090.72;;;12.66;100.00
76434;BME280;65265;53.200;6.080;2024-02-15T15:45:18;101090.78;;;12.67;100.00
76434;BME280;65265;53.200;6.080;2024-02-15T15:50:10;101109.22;;;12.81;100.00
76434;BME280;65265;53.200;6.080;2024-02-15T15:55:03;101114.34;;;12.81;100.00
76434;BME280;65265;53.200;6.080;2024-02-15T16:00:05;101109.13;;;12.78;100.00
76434;BME280;65265;53.200;6.080;2024-02-15T16:05:03;101106.22;;;12.69;100.00
76434;BME280;65265;53.200;6.080;2024-02-15T16:09:57;101102.97;;;12.73;100.00
76434;BME280;65265;53.200;6.080;2024-02-15T16:14:50;101095.78;;;12.64;100.00
76434;BME280;65265;53.200;6.080;2024-02-15T16:19:43;101107.03;;;12.68;100.00
76434;BME280;65265;53.200;6.080;2024-02-15T16:24:36;101097.41;;;12.61;100.00
76434;BME280;65265;53.200;6.080;2024-02-15T16:29:29;101095.84;;;12.66;100.00
76434;BME280;65265;53.200;6.080;2024-02-15T16:34:21;101090.22;;;12.52;100.00
76434;BME280;65265;53.200;6.080;2024-02-15T16:39:17;101095.16;;;12.46;100.00
76434;BME280;65265;53.200;6.080;2024-02-15T16:44:10;101082.84;;;12.38;100.00
76434;BME280;65265;53.200;6.080;2024-02-15T16:49:03;101088.59;;;12.31;100.00
76434;BME280;65265;53.200;6.080;2024-02-15T16:53:56;101082.38;;;12.24;100.00
76434;BME280;65265;53.200;6.080;2024-02-15T16:58:51;101068.56;;;12.21;100.00
76434;BME280;65265;53.200;6.080;2024-02-15T17:03:44;101062.09;;;12.08;100.00
76434;BME280;65265;53.200;6.080;2024-02-15T17:08:38;101059.25;;;12.01;100.00
76434;BME280;65265;53.200;6.080;2024-02-15T17:13:31;101065.28;;;12.01;100.00
76434;BME280;65265;53.200;6.080;2024-02-15T17:18:30;101065.03;;;11.95;100.00
76434;BME280;65265;53.200;6.080;2024-02-15T17:23:22;101067.50;;;11.93;100.00
76434;BME280;65265;53.200;6.080;2024-02-15T17:28:15;101068.84;;;11.83;100.00
76434;BME280;65265;53.200;6.080;2024-02-15T17:33:09;101068.94;;;11.86;100.00
76434;BME280;65265;53.200;6.080;2024-02-15T17:38:03;101073.53;;;11.73;100.00
76434;BME280;65265;53.200;6.080;2024-02-15T17:42:56;101068.13;;;11.65;100.00
76434;BME280;65265;53.200;6.080;2024-02-15T17:47:48;101074.19;;;11.67;100.00
76434;BME280;65265;53.200;6.080;2024-02-15T17:52:40;101080.00;;;11.63;100.00
76434;BME280;65265;53.200;6.080;2024-02-15T17:57:35;101080.69;;;11.59;100.00
76434;BME280;65265;53.200;6.080;2024-02-15T18:02:28;101086.38;;;11.52;100.00
76434;BME280;65265;53.200;6.080;2024-02-15T18:07:25;101087.72;;;11.44;100.00
76434;BME280;65265;53.200;6.080;2024-02-15T18:12:19;101085.88;;;11.40;100.00
76434;BME280;65265;53.200;6.080;2024-02-15T18:17:15;101091.63;;;11.35;100.00
76434;BME280;65265;53.200;6.080;2024-02-15T18:22:07;101091.28;;;11.27;100.00
76434;BME280;65265;53.200;6.080;2024-02-15T18:26:59;101074.25;;;11.28;100.00
76434;BME280;65265;53.200;6.080;2024-02-15T18:31:51;101037.41;;;11.24;100.00
76434;BME280;65265;53.200;6.080;2024-02-15T18:36:46;101050.47;;;11.30;100.00
76434;BME280;65265;53.200;6.080;2024-02-15T18:41:39;101047.75;;;11.27;100.00
76434;BME280;65265;53.200;6.080;2024-02-15T18:46:34;101039.53;;;11.34;100.00
76434;BME280;65265;53.200;6.080;2024-02-15T18:51:26;101032.56;;;11.30;100.00
76434;BME280;65265;53.200;6.080;2024-02-15T18:56:20;101029.34;;;11.36;100.00
76434;BME280;65265;53.200;6.080;2024-02-15T19:01:13;101031.13;;;11.38;100.00
76434;BME280;65265;53.200;6.080;2024-02-15T19:06:07;101022.41;;;11.33;100.00
76434;BME280;65265;53.200;6.080;2024-02-15T19:11:01;101019.97;;;11.36;100.00
76434;BME280;65265;53.200;6.080;2024-02-15T19:15:56;101025.06;;;11.35;100.00
76434;BME280;65265;53.200;6.080;2024-02-15T19:20:50;101013.41;;;11.43;100.00
76434;BME280;65265;53.200;6.080;2024-02-15T19:25:42;101005.16;;;11.50;100.00
76434;BME280;65265;53.200;6.080;2024-02-15T19:30:35;100987.03;;;11.45;100.00
76434;BME280;65265;53.200;6.080;2024-02-15T19:35:30;100987.28;;;11.51;100.00
76434;BME280;65265;53.200;6.080;2024-02-15T19:40:22;100990.72;;;11.52;100.00
76434;BME280;65265;53.200;6.080;2024-02-15T19:45:15;100987.41;;;11.54;100.00
76434;BME280;65265;53.200;6.080;2024-02-15T19:50:08;100989.06;;;11.54;100.00
76434;BME280;65265;53.200;6.080;2024-02-15T19:55:07;100974.59;;;11.54;100.00
76434;BME280;65265;53.200;6.080;2024-02-15T20:00:01;100970.50;;;11.58;100.00
76434;BME280;65265;53.200;6.080;2024-02-15T20:04:54;100964.25;;;11.51;100.00
76434;BME280;65265;53.200;6.080;2024-02-15T20:09:47;100972.16;;;11.57;100.00
76434;BME280;65265;53.200;6.080;2024-02-15T20:14:41;100967.66;;;11.52;100.00
76434;BME280;65265;53.200;6.080;2024-02-15T20:19:34;100974.16;;;11.64;100.00
76434;BME280;65265;53.200;6.080;2024-02-15T20:24:26;100968.38;;;11.70;100.00
76434;BME280;65265;53.200;6.080;2024-02-15T20:29:21;100965.88;;;11.71;100.00
76434;BME280;65265;53.200;6.080;2024-02-15T20:34:17;100958.91;;;11.67;100.00
76434;BME280;65265;53.200;6.080;2024-02-15T20:39:10;100958.25;;;11.73;100.00
76434;BME280;65265;53.200;6.080;2024-02-15T20:44:03;100961.97;;;11.81;100.00
76434;BME280;65265;53.200;6.080;2024-02-15T20:48:58;100956.84;;;11.81;100.00
76434;BME280;65265;53.200;6.080;2024-02-15T20:53:57;100948.28;;;11.80;100.00
76434;BME280;65265;53.200;6.080;2024-02-15T20:58:50;100950.72;;;11.77;100.00
76434;BME280;65265;53.200;6.080;2024-02-15T21:03:43;100949.91;;;11.78;100.00
76434;BME280;65265;53.200;6.080;2024-02-15T21:08:40;100928.06;;;11.64;100.00
76434;BME280;65265;53.200;6.080;2024-02-15T21:13:36;100939.38;;;11.71;100.00
76434;BME280;65265;53.200;6.080;2024-02-15T21:18:29;100930.72;;;11.67;100.00
76434;BME280;65265;53.200;6.080;2024-02-15T21:23:21;100920.75;;;11.75;100.00
76434;BME280;65265;53.200;6.080;2024-02-15T21:28:16;100909.56;;;11.73;100.00
76434;BME280;65265;53.200;6.080;2024-02-15T21:33:11;100899.97;;;11.67;100.00
76434;BME280;65265;53.200;6.080;2024-02-15T21:38:04;100907.56;;;11.64;100.00
76434;BME280;65265;53.200;6.080;2024-02-15T21:42:56;100899.88;;;11.64;100.00
76434;BME280;65265;53.200;6.080;2024-02-15T21:47:48;100892.69;;;11.56;100.00
76434;BME280;65265;53.200;6.080;2024-02-15T21:52:42;100900.03;;;11.47;100.00
76434;BME280;65265;53.200;6.080;2024-02-15T21:57:35;100887.28;;;11.48;100.00
76434;BME280;65265;53.200;6.080;2024-02-15T22:02:30;100884.69;;;11.47;100.00
76434;BME280;65265;53.200;6.080;2024-02-15T22:07:22;100885.25;;;11.40;100.00
76434;BME280;65265;53.200;6.080;2024-02-15T22:12:16;100892.41;;;11.48;100.00
76434;BME280;65265;53.200;6.080;2024-02-15T22:17:09;100895.78;;;11.47;100.00
76434;BME280;65265;53.200;6.080;2024-02-15T22:22:02;100889.38;;;11.36;100.00
76434;BME280;65265;53.200;6.080;2024-02-15T22:26:54;100905.19;;;11.48;100.00
76434;BME280;65265;53.200;6.080;2024-02-15T22:31:51;100895.78;;;11.47;100.00
76434;BME280;65265;53.200;6.080;2024-02-15T22:36:43;100893.56;;;11.56;100.00
76434;BME280;65265;53.200;6.080;2024-02-15T22:41:34;100905.56;;;11.57;100.00
76434;BME280;65265;53.200;6.080;2024-02-15T22:46:28;100890.06;;;11.54;100.00
76434;BME280;65265;53.200;6.080;2024-02-15T22:51:24;100886.69;;;11.55;100.00
76434;BME280;65265;53.200;6.080;2024-02-15T22:56:18;100877.09;;;11.50;100.00
76434;BME280;65265;53.200;6.080;2024-02-15T23:01:13;100879.75;;;11.53;100.00
76434;BME280;65265;53.200;6.080;2024-02-15T23:06:07;100877.00;;;11.47;100.00
76434;BME280;65265;53.200;6.080;2024-02-15T23:11:03;100878.00;;;11.50;100.00
76434;BME280;65265;53.200;6.080;2024-02-15T23:15:56;100887.34;;;11.50;100.00
76434;BME280;65265;53.200;6.080;2024-02-15T23:20:50;100875.34;;;11.49;100.00
76434;BME280;65265;53.200;6.080;2024-02-15T23:25:43;100885.31;;;11.41;100.00
76434;BME280;65265;53.200;6.080;2024-02-15T23:30:38;100876.75;;;11.41;100.00
76434;BME280;65265;53.200;6.080;2024-02-15T23:35:32;100879.97;;;11.35;100.00
76434;BME280;65265;53.200;6.080;2024-02-15T23:40:25;100888.53;;;11.36;100.00
76434;BME280;65265;53.200;6.080;2024-02-15T23:45:16;100884.06;;;11.30;100.00
76434;BME280;65265;53.200;6.080;2024-02-15T23:50:11;100880.44;;;11.25;100.00
76434;BME280;65265;53.200;6.080;2024-02-15T23:55:06;100876.88;;;11.22;100.00
